Terminal Aerodrome Forecast
Issued by NWS Charleston, WV

Home | Current Version | Previous Version | Text Only | Print | Product List | Glossary On
Versions: 1 2 3 4 5 6 7 8 9 10 11 12 13 14 15 16 17 18 19 20 21
000
FTUS41 KRLX 141100
TAFBKW
TAF
KBKW 141138Z 1412/1512 22006KT P6SM -SHRA SCT025
     FM141400 25009G18KT P6SM VCTS BKN035CB
     FM141700 25008G18KT P6SM +TSRA BKN035CB
     FM150100 00000KT 6SM BR VCTS BKN040CB
     FM150300 VRB03KT P6SM BKN035
     FM150800 VRB03KT 5SM BR BKN020=

USA.gov is the U.S. government's official web portal to all federal, state and local government web resources and services.